Summit Station, Ohio
Current Conditions -  °F | °C
As of 8:51 AM on Friday 24 Oct 2014 (Local Time) from KCMH Reporting Station
Haze Haze  
Wind Chill: 42°   Ceiling: 15000
Heat Index: 42°   Visibility: 6mi
Dew Point: 39°   Wind: 0mph
Humidity: 89%   Direction: NA
Pressure: 30.12"   Gusts: NA
Location:  40°N, 82.75°W
Report Text: KCMH 241251Z 00000KT 6SM BR BKN150 06/04 A3012 RMK AO2 SLP203 T00560039
Loading
Personal Weather Stations






























Interactive Weather Map
Tropical Storm Tracking
New forecast layout! Learn more

10-Day Weather Forecast

Advertisements
Track Severe Weather on mobile